Terminal Aerodrome Forecast
Issued by NWS

Home | Current Version | Previous Version | Text Only | Print | Product List | Glossary On
Versions: 1 2 3 4 5 6 7 8 9 10 11 12 13 14 15 16 17 18 19 20 21 22 23
462
FTUS46 KLOX 202346
TAFLGB
TAF
KLGB 202346Z 2100/2124 19008KT P6SM SCT035
     FM210700 15006KT P6SM VCSH BKN012 BKN025
     FM211700 19010KT P6SM VCSH BKN025 BKN040
     FM212000 21012G18KT P6SM SCT025 BKN040=

USA.gov is the U.S. government's official web portal to all federal, state and local government web resources and services.